sensor_id;sensor_type;location;lat;lon;timestamp;pressure;altitude;pressure_sealevel;temperature;humidity
57442;BME280;43284;47.042;15.498;2023-07-13T00:01:27;96930.94;;;18.53;83.10
57442;BME280;43284;47.042;15.498;2023-07-13T00:03:53;96919.75;;;18.49;82.79
57442;BME280;43284;47.042;15.498;2023-07-13T00:06:19;96922.94;;;18.43;83.84
57442;BME280;43284;47.042;15.498;2023-07-13T00:08:46;96920.94;;;18.36;83.60
57442;BME280;43284;47.042;15.498;2023-07-13T00:11:13;96925.31;;;18.25;83.66
57442;BME280;43284;47.042;15.498;2023-07-13T00:13:39;96914.00;;;18.23;84.73
57442;BME280;43284;47.042;15.498;2023-07-13T00:16:06;96907.50;;;18.27;87.72
57442;BME280;43284;47.042;15.498;2023-07-13T00:18:31;96909.09;;;18.19;86.63
57442;BME280;43284;47.042;15.498;2023-07-13T00:20:57;96907.81;;;18.13;87.25
57442;BME280;43284;47.042;15.498;2023-07-13T00:23:34;96897.25;;;18.13;87.48
57442;BME280;43284;47.042;15.498;2023-07-13T00:26:04;96891.44;;;18.19;87.87
57442;BME280;43284;47.042;15.498;2023-07-13T00:28:30;96886.47;;;18.26;87.81
57442;BME280;43284;47.042;15.498;2023-07-13T00:30:56;96893.31;;;18.28;88.44
57442;BME280;43284;47.042;15.498;2023-07-13T00:33:22;96897.50;;;18.31;88.22
57442;BME280;43284;47.042;15.498;2023-07-13T00:35:48;96891.09;;;18.33;88.13
57442;BME280;43284;47.042;15.498;2023-07-13T00:38:15;96868.59;;;18.39;89.64
57442;BME280;43284;47.042;15.498;2023-07-13T00:40:40;96854.13;;;18.43;88.71
57442;BME280;43284;47.042;15.498;2023-07-13T00:43:23;96832.25;;;18.41;85.96
57442;BME280;43284;47.042;15.498;2023-07-13T00:48:18;96854.50;;;18.39;87.45
57442;BME280;43284;47.042;15.498;2023-07-13T00:50:48;96858.41;;;18.35;87.51
57442;BME280;43284;47.042;15.498;2023-07-13T00:53:15;96867.41;;;18.32;87.57
57442;BME280;43284;47.042;15.498;2023-07-13T00:55:42;96851.16;;;18.37;87.56
57442;BME280;43284;47.042;15.498;2023-07-13T00:58:07;96806.84;;;18.39;85.65
57442;BME280;43284;47.042;15.498;2023-07-13T01:00:36;96810.38;;;18.39;84.55
57442;BME280;43284;47.042;15.498;2023-07-13T01:03:04;96811.38;;;18.48;83.46
57442;BME280;43284;47.042;15.498;2023-07-13T01:05:31;96803.16;;;18.51;82.32
57442;BME280;43284;47.042;15.498;2023-07-13T01:07:59;96808.34;;;18.52;82.15
57442;BME280;43284;47.042;15.498;2023-07-13T01:10:37;96809.75;;;18.57;83.89
57442;BME280;43284;47.042;15.498;2023-07-13T01:13:06;96799.72;;;18.60;84.05
57442;BME280;43284;47.042;15.498;2023-07-13T01:15:43;96811.41;;;18.58;84.04
57442;BME280;43284;47.042;15.498;2023-07-13T01:18:15;96853.38;;;18.62;85.23
57442;BME280;43284;47.042;15.498;2023-07-13T01:20:50;96880.94;;;18.60;84.15
57442;BME280;43284;47.042;15.498;2023-07-13T01:23:16;96881.66;;;18.62;84.07
57442;BME280;43284;47.042;15.498;2023-07-13T01:25:41;96891.94;;;18.55;85.15
57442;BME280;43284;47.042;15.498;2023-07-13T01:28:08;96918.09;;;18.48;86.82
57442;BME280;43284;47.042;15.498;2023-07-13T01:30:37;96915.44;;;18.48;87.28
57442;BME280;43284;47.042;15.498;2023-07-13T01:33:07;96894.00;;;18.51;86.45
57442;BME280;43284;47.042;15.498;2023-07-13T01:35:33;96909.47;;;18.56;87.70
57442;BME280;43284;47.042;15.498;2023-07-13T01:37:59;96942.41;;;18.21;92.27
57442;BME280;43284;47.042;15.498;2023-07-13T01:40:26;96959.88;;;18.12;95.10
57442;BME280;43284;47.042;15.498;2023-07-13T01:42:52;96960.03;;;18.11;97.22
57442;BME280;43284;47.042;15.498;2023-07-13T01:45:17;96958.31;;;18.10;98.27
57442;BME280;43284;47.042;15.498;2023-07-13T01:47:43;96982.13;;;18.10;98.00
57442;BME280;43284;47.042;15.498;2023-07-13T01:50:09;97018.94;;;18.13;100.00
57442;BME280;43284;47.042;15.498;2023-07-13T01:52:35;97079.44;;;18.06;100.00
57442;BME280;43284;47.042;15.498;2023-07-13T01:55:00;97137.28;;;18.11;100.00
57442;BME280;43284;47.042;15.498;2023-07-13T01:57:27;97212.06;;;18.02;100.00
57442;BME280;43284;47.042;15.498;2023-07-13T01:59:53;97267.38;;;17.94;100.00
57442;BME280;43284;47.042;15.498;2023-07-13T02:02:18;97302.31;;;17.86;100.00
57442;BME280;43284;47.042;15.498;2023-07-13T02:04:44;97318.44;;;17.83;100.00
57442;BME280;43284;47.042;15.498;2023-07-13T02:07:10;97339.16;;;17.76;100.00
57442;BME280;43284;47.042;15.498;2023-07-13T02:09:35;97352.84;;;17.70;100.00
57442;BME280;43284;47.042;15.498;2023-07-13T02:12:02;97353.28;;;17.64;100.00
57442;BME280;43284;47.042;15.498;2023-07-13T02:14:27;97366.75;;;17.61;100.00
57442;BME280;43284;47.042;15.498;2023-07-13T02:16:53;97370.81;;;17.54;100.00
57442;BME280;43284;47.042;15.498;2023-07-13T02:19:18;97352.06;;;17.57;100.00
57442;BME280;43284;47.042;15.498;2023-07-13T02:21:44;97340.13;;;17.51;100.00
57442;BME280;43284;47.042;15.498;2023-07-13T02:24:09;97329.91;;;17.46;100.00
57442;BME280;43284;47.042;15.498;2023-07-13T02:26:35;97303.59;;;17.45;100.00
57442;BME280;43284;47.042;15.498;2023-07-13T02:29:01;97274.75;;;17.42;100.00
57442;BME280;43284;47.042;15.498;2023-07-13T02:31:26;97240.78;;;17.48;100.00
57442;BME280;43284;47.042;15.498;2023-07-13T02:33:52;97198.59;;;17.47;100.00
57442;BME280;43284;47.042;15.498;2023-07-13T02:36:18;97157.38;;;17.44;100.00
57442;BME280;43284;47.042;15.498;2023-07-13T02:38:44;97120.16;;;17.36;100.00
57442;BME280;43284;47.042;15.498;2023-07-13T02:41:09;97076.81;;;17.39;100.00
57442;BME280;43284;47.042;15.498;2023-07-13T02:43:36;97055.19;;;17.45;100.00
57442;BME280;43284;47.042;15.498;2023-07-13T02:46:02;97019.03;;;17.45;100.00
57442;BME280;43284;47.042;15.498;2023-07-13T02:48:39;97018.53;;;17.40;100.00
57442;BME280;43284;47.042;15.498;2023-07-13T02:51:05;96997.38;;;17.40;100.00
57442;BME280;43284;47.042;15.498;2023-07-13T02:53:31;96971.69;;;17.42;100.00
57442;BME280;43284;47.042;15.498;2023-07-13T02:55:56;96970.72;;;17.43;100.00
57442;BME280;43284;47.042;15.498;2023-07-13T02:58:22;97009.53;;;17.43;100.00
57442;BME280;43284;47.042;15.498;2023-07-13T03:00:48;97030.06;;;17.39;100.00
57442;BME280;43284;47.042;15.498;2023-07-13T03:03:15;97054.31;;;17.33;100.00
57442;BME280;43284;47.042;15.498;2023-07-13T03:05:43;97091.41;;;17.32;100.00
57442;BME280;43284;47.042;15.498;2023-07-13T03:08:10;97130.84;;;17.35;100.00
57442;BME280;43284;47.042;15.498;2023-07-13T03:10:36;97166.66;;;17.39;100.00
57442;BME280;43284;47.042;15.498;2023-07-13T03:13:02;97197.03;;;17.44;100.00
57442;BME280;43284;47.042;15.498;2023-07-13T03:15:28;97247.13;;;17.46;100.00
57442;BME280;43284;47.042;15.498;2023-07-13T03:17:53;97225.88;;;17.47;100.00
57442;BME280;43284;47.042;15.498;2023-07-13T03:20:19;97245.13;;;17.49;100.00
57442;BME280;43284;47.042;15.498;2023-07-13T03:22:45;97219.63;;;17.48;100.00
57442;BME280;43284;47.042;15.498;2023-07-13T03:25:11;97197.66;;;17.48;100.00
57442;BME280;43284;47.042;15.498;2023-07-13T03:27:37;97192.59;;;17.45;100.00
57442;BME280;43284;47.042;15.498;2023-07-13T03:30:04;97169.75;;;17.44;100.00
57442;BME280;43284;47.042;15.498;2023-07-13T03:32:30;97127.38;;;17.45;100.00
57442;BME280;43284;47.042;15.498;2023-07-13T03:34:55;97061.88;;;17.49;100.00
57442;BME280;43284;47.042;15.498;2023-07-13T03:37:21;96984.19;;;17.52;100.00
57442;BME280;43284;47.042;15.498;2023-07-13T03:39:46;96894.19;;;17.53;100.00
57442;BME280;43284;47.042;15.498;2023-07-13T03:42:12;96813.22;;;17.52;100.00
57442;BME280;43284;47.042;15.498;2023-07-13T03:44:39;96798.19;;;17.53;100.00
57442;BME280;43284;47.042;15.498;2023-07-13T03:47:05;96774.53;;;17.51;100.00
57442;BME280;43284;47.042;15.498;2023-07-13T03:49:31;96767.00;;;17.46;100.00
57442;BME280;43284;47.042;15.498;2023-07-13T03:51:57;96776.41;;;17.39;100.00
57442;BME280;43284;47.042;15.498;2023-07-13T03:54:23;96816.88;;;17.40;100.00
57442;BME280;43284;47.042;15.498;2023-07-13T03:56:48;96844.03;;;17.30;100.00
57442;BME280;43284;47.042;15.498;2023-07-13T03:59:14;96867.22;;;17.27;100.00
57442;BME280;43284;47.042;15.498;2023-07-13T04:01:39;96898.72;;;17.19;100.00
57442;BME280;43284;47.042;15.498;2023-07-13T04:04:05;96932.91;;;17.20;100.00
57442;BME280;43284;47.042;15.498;2023-07-13T04:06:32;96944.09;;;17.24;100.00
57442;BME280;43284;47.042;15.498;2023-07-13T04:08:59;96958.38;;;17.21;100.00
57442;BME280;43284;47.042;15.498;2023-07-13T04:11:28;96975.91;;;17.22;100.00
57442;BME280;43284;47.042;15.498;2023-07-13T04:13:54;96994.16;;;17.25;100.00
57442;BME280;43284;47.042;15.498;2023-07-13T04:16:20;97007.13;;;17.28;100.00
57442;BME280;43284;47.042;15.498;2023-07-13T04:18:47;97012.03;;;17.33;100.00
57442;BME280;43284;47.042;15.498;2023-07-13T04:21:13;97033.06;;;17.35;100.00
57442;BME280;43284;47.042;15.498;2023-07-13T04:23:39;97041.72;;;17.37;100.00
57442;BME280;43284;47.042;15.498;2023-07-13T04:26:06;97044.00;;;17.41;100.00
57442;BME280;43284;47.042;15.498;2023-07-13T04:28:32;97041.09;;;17.44;100.00
57442;BME280;43284;47.042;15.498;2023-07-13T04:30:58;97042.91;;;17.44;100.00
57442;BME280;43284;47.042;15.498;2023-07-13T04:33:24;97042.81;;;17.45;100.00
57442;BME280;43284;47.042;15.498;2023-07-13T04:35:51;97048.81;;;17.47;100.00
57442;BME280;43284;47.042;15.498;2023-07-13T04:38:26;97053.00;;;17.50;100.00
57442;BME280;43284;47.042;15.498;2023-07-13T04:40:55;97065.03;;;17.54;100.00
57442;BME280;43284;47.042;15.498;2023-07-13T04:43:21;97058.66;;;17.57;100.00
57442;BME280;43284;47.042;15.498;2023-07-13T04:45:46;97053.47;;;17.55;100.00
57442;BME280;43284;47.042;15.498;2023-07-13T04:48:12;97052.41;;;17.58;100.00
57442;BME280;43284;47.042;15.498;2023-07-13T04:50:37;97049.75;;;17.58;100.00
57442;BME280;43284;47.042;15.498;2023-07-13T04:53:04;97053.47;;;17.55;100.00
57442;BME280;43284;47.042;15.498;2023-07-13T04:55:30;97058.66;;;17.57;100.00
57442;BME280;43284;47.042;15.498;2023-07-13T04:57:57;97053.00;;;17.61;100.00
57442;BME280;43284;47.042;15.498;2023-07-13T05:00:24;97056.38;;;17.63;100.00
57442;BME280;43284;47.042;15.498;2023-07-13T05:02:50;97057.19;;;17.64;100.00
57442;BME280;43284;47.042;15.498;2023-07-13T05:05:16;97056.13;;;17.66;100.00
57442;BME280;43284;47.042;15.498;2023-07-13T05:07:41;97051.44;;;17.70;100.00
57442;BME280;43284;47.042;15.498;2023-07-13T05:10:07;97043.13;;;17.75;100.00
57442;BME280;43284;47.042;15.498;2023-07-13T05:12:33;97035.81;;;17.78;100.00
57442;BME280;43284;47.042;15.498;2023-07-13T05:14:59;97046.13;;;17.81;100.00
57442;BME280;43284;47.042;15.498;2023-07-13T05:17:24;97045.22;;;17.82;100.00
57442;BME280;43284;47.042;15.498;2023-07-13T05:19:50;97050.50;;;17.82;100.00
57442;BME280;43284;47.042;15.498;2023-07-13T05:22:15;97044.25;;;17.83;100.00
57442;BME280;43284;47.042;15.498;2023-07-13T05:24:40;97034.50;;;17.84;100.00
57442;BME280;43284;47.042;15.498;2023-07-13T05:27:06;97034.38;;;17.85;100.00
57442;BME280;43284;47.042;15.498;2023-07-13T05:29:31;97034.50;;;17.84;100.00
57442;BME280;43284;47.042;15.498;2023-07-13T05:31:57;97036.19;;;17.85;100.00
57442;BME280;43284;47.042;15.498;2023-07-13T05:34:23;97037.03;;;17.85;100.00
57442;BME280;43284;47.042;15.498;2023-07-13T05:36:48;97035.94;;;17.88;100.00
57442;BME280;43284;47.042;15.498;2023-07-13T05:39:14;97032.34;;;17.89;100.00
57442;BME280;43284;47.042;15.498;2023-07-13T05:41:40;97023.06;;;17.95;100.00
57442;BME280;43284;47.042;15.498;2023-07-13T05:44:05;97029.22;;;17.95;100.00
57442;BME280;43284;47.042;15.498;2023-07-13T05:46:31;97028.13;;;17.98;100.00
57442;BME280;43284;47.042;15.498;2023-07-13T05:48:56;97031.22;;;18.03;100.00
57442;BME280;43284;47.042;15.498;2023-07-13T05:51:22;97031.94;;;18.05;100.00
57442;BME280;43284;47.042;15.498;2023-07-13T05:53:47;97032.78;;;18.05;100.00
57442;BME280;43284;47.042;15.498;2023-07-13T05:56:13;97051.97;;;18.19;100.00
57442;BME280;43284;47.042;15.498;2023-07-13T05:58:38;97049.44;;;18.28;100.00
57442;BME280;43284;47.042;15.498;2023-07-13T06:01:06;97043.75;;;18.33;100.00
57442;BME280;43284;47.042;15.498;2023-07-13T06:03:32;97045.44;;;18.34;100.00
57442;BME280;43284;47.042;15.498;2023-07-13T06:05:58;97043.00;;;18.42;100.00
57442;BME280;43284;47.042;15.498;2023-07-13T06:08:26;97047.91;;;18.47;100.00
57442;BME280;43284;47.042;15.498;2023-07-13T06:10:51;97046.47;;;18.43;100.00
57442;BME280;43284;47.042;15.498;2023-07-13T06:13:17;97047.53;;;18.51;100.00
57442;BME280;43284;47.042;15.498;2023-07-13T06:15:50;97045.38;;;18.57;100.00
57442;BME280;43284;47.042;15.498;2023-07-13T06:18:15;97054.84;;;18.59;100.00
57442;BME280;43284;47.042;15.498;2023-07-13T06:20:41;97070.84;;;18.58;100.00
57442;BME280;43284;47.042;15.498;2023-07-13T06:23:06;97069.63;;;18.62;100.00
57442;BME280;43284;47.042;15.498;2023-07-13T06:25:32;97070.34;;;18.64;100.00
57442;BME280;43284;47.042;15.498;2023-07-13T06:27:57;97064.69;;;18.68;100.00
57442;BME280;43284;47.042;15.498;2023-07-13T06:30:23;97065.72;;;18.77;100.00
57442;BME280;43284;47.042;15.498;2023-07-13T06:32:49;97058.84;;;18.86;100.00
57442;BME280;43284;47.042;15.498;2023-07-13T06:35:14;97059.88;;;18.94;100.00
57442;BME280;43284;47.042;15.498;2023-07-13T06:37:40;97058.97;;;19.05;100.00
57442;BME280;43284;47.042;15.498;2023-07-13T06:40:06;97056.59;;;19.02;100.00
57442;BME280;43284;47.042;15.498;2023-07-13T06:42:32;97049.34;;;19.04;100.00
57442;BME280;43284;47.042;15.498;2023-07-13T06:44:57;97038.81;;;19.14;98.13
57442;BME280;43284;47.042;15.498;2023-07-13T06:47:23;97049.00;;;19.19;94.79
57442;BME280;43284;47.042;15.498;2023-07-13T06:49:48;97050.31;;;19.24;92.68
57442;BME280;43284;47.042;15.498;2023-07-13T06:52:14;97054.53;;;19.37;93.57
57442;BME280;43284;47.042;15.498;2023-07-13T06:54:39;97065.16;;;19.37;94.74
57442;BME280;43284;47.042;15.498;2023-07-13T06:57:05;97070.03;;;19.41;98.98
57442;BME280;43284;47.042;15.498;2023-07-13T06:59:31;97061.56;;;19.47;98.92
57442;BME280;43284;47.042;15.498;2023-07-13T07:01:56;97068.28;;;19.51;97.35
57442;BME280;43284;47.042;15.498;2023-07-13T07:04:22;97064.00;;;19.60;95.51
57442;BME280;43284;47.042;15.498;2023-07-13T07:06:47;97073.09;;;19.67;97.19
57442;BME280;43284;47.042;15.498;2023-07-13T07:09:13;97063.94;;;19.71;98.21
57442;BME280;43284;47.042;15.498;2023-07-13T07:11:39;97069.94;;;19.73;97.69
57442;BME280;43284;47.042;15.498;2023-07-13T07:14:04;97065.78;;;19.81;99.92
57442;BME280;43284;47.042;15.498;2023-07-13T07:16:30;97072.66;;;19.83;92.36
57442;BME280;43284;47.042;15.498;2023-07-13T07:18:55;97076.88;;;19.95;92.64
57442;BME280;43284;47.042;15.498;2023-07-13T07:21:21;97075.50;;;20.11;91.65
57442;BME280;43284;47.042;15.498;2023-07-13T07:23:48;97073.03;;;20.19;94.41
57442;BME280;43284;47.042;15.498;2023-07-13T07:26:14;97066.75;;;20.30;97.42
57442;BME280;43284;47.042;15.498;2023-07-13T07:28:40;97057.13;;;20.38;93.68
57442;BME280;43284;47.042;15.498;2023-07-13T07:31:06;97055.28;;;20.39;87.50
57442;BME280;43284;47.042;15.498;2023-07-13T07:33:33;97062.59;;;20.47;92.26
57442;BME280;43284;47.042;15.498;2023-07-13T07:35:58;97053.34;;;20.51;90.31
57442;BME280;43284;47.042;15.498;2023-07-13T07:38:24;97051.84;;;20.58;91.13
57442;BME280;43284;47.042;15.498;2023-07-13T07:40:49;97051.41;;;20.72;88.98
57442;BME280;43284;47.042;15.498;2023-07-13T07:43:15;97054.06;;;20.72;85.26
57442;BME280;43284;47.042;15.498;2023-07-13T07:45:41;97053.09;;;20.83;85.51
57442;BME280;43284;47.042;15.498;2023-07-13T07:48:07;97044.56;;;20.99;83.62
57442;BME280;43284;47.042;15.498;2023-07-13T07:50:33;97037.13;;;21.12;76.96
57442;BME280;43284;47.042;15.498;2023-07-13T07:52:58;97028.28;;;21.22;78.98
57442;BME280;43284;47.042;15.498;2023-07-13T07:55:25;97035.31;;;21.40;76.99
57442;BME280;43284;47.042;15.498;2023-07-13T07:57:54;97043.47;;;21.49;81.15
57442;BME280;43284;47.042;15.498;2023-07-13T08:00:20;97054.41;;;21.46;80.03
57442;BME280;43284;47.042;15.498;2023-07-13T08:02:45;97064.22;;;21.45;77.29
57442;BME280;43284;47.042;15.498;2023-07-13T08:05:11;97072.44;;;21.52;78.97
57442;BME280;43284;47.042;15.498;2023-07-13T08:07:38;97074.47;;;21.68;78.14
57442;BME280;43284;47.042;15.498;2023-07-13T08:10:05;97073.47;;;21.69;75.79
57442;BME280;43284;47.042;15.498;2023-07-13T08:12:35;97069.28;;;21.76;67.46
57442;BME280;43284;47.042;15.498;2023-07-13T08:15:01;97063.19;;;21.84;68.96
57442;BME280;43284;47.042;15.498;2023-07-13T08:17:27;97056.03;;;21.84;71.98
57442;BME280;43284;47.042;15.498;2023-07-13T08:19:53;97064.88;;;21.85;71.30
57442;BME280;43284;47.042;15.498;2023-07-13T08:22:18;97064.03;;;21.84;77.05
57442;BME280;43284;47.042;15.498;2023-07-13T08:24:44;97063.63;;;21.79;81.09
57442;BME280;43284;47.042;15.498;2023-07-13T08:27:11;97055.78;;;21.77;77.85
57442;BME280;43284;47.042;15.498;2023-07-13T08:29:39;97043.03;;;21.81;78.32
57442;BME280;43284;47.042;15.498;2023-07-13T08:32:06;97038.97;;;21.87;74.23
57442;BME280;43284;47.042;15.498;2023-07-13T08:34:35;97034.72;;;21.94;70.52
57442;BME280;43284;47.042;15.498;2023-07-13T08:37:01;97038.44;;;22.01;75.27
57442;BME280;43284;47.042;15.498;2023-07-13T08:39:26;97052.00;;;22.08;77.37
57442;BME280;43284;47.042;15.498;2023-07-13T08:41:59;97051.56;;;22.12;77.15
57442;BME280;43284;47.042;15.498;2023-07-13T08:47:02;97040.97;;;22.30;76.28
57442;BME280;43284;47.042;15.498;2023-07-13T08:49:28;97047.75;;;22.42;76.89
57442;BME280;43284;47.042;15.498;2023-07-13T08:52:00;97055.00;;;22.50;77.35
57442;BME280;43284;47.042;15.498;2023-07-13T08:54:32;97045.25;;;22.59;74.60
57442;BME280;43284;47.042;15.498;2023-07-13T08:57:13;97047.72;;;22.60;72.65
57442;BME280;43284;47.042;15.498;2023-07-13T08:59:39;97037.59;;;22.82;77.33
57442;BME280;43284;47.042;15.498;2023-07-13T09:04:39;97038.47;;;23.00;73.35
57442;BME280;43284;47.042;15.498;2023-07-13T09:07:11;97029.03;;;23.14;77.33
57442;BME280;43284;47.042;15.498;2023-07-13T09:14:55;97021.91;;;23.49;75.22
57442;BME280;43284;47.042;15.498;2023-07-13T09:17:41;97029.97;;;23.65;72.04
57442;BME280;43284;47.042;15.498;2023-07-13T09:20:22;97027.59;;;23.80;70.87
57442;BME280;43284;47.042;15.498;2023-07-13T09:22:49;97027.97;;;23.85;70.37
57442;BME280;43284;47.042;15.498;2023-07-13T09:25:30;97027.31;;;24.00;69.50
57442;BME280;43284;47.042;15.498;2023-07-13T09:28:00;97037.53;;;24.13;66.00
57442;BME280;43284;47.042;15.498;2023-07-13T09:30:34;97036.75;;;24.29;64.15
57442;BME280;43284;47.042;15.498;2023-07-13T09:33:03;97035.44;;;24.41;64.08
57442;BME280;43284;47.042;15.498;2023-07-13T09:35:30;97036.59;;;24.46;58.57
57442;BME280;43284;47.042;15.498;2023-07-13T09:38:04;97032.13;;;24.55;54.06
57442;BME280;43284;47.042;15.498;2023-07-13T09:40:44;97036.50;;;24.64;58.77
57442;BME280;43284;47.042;15.498;2023-07-13T09:43:14;97028.97;;;24.76;61.35
57442;BME280;43284;47.042;15.498;2023-07-13T09:45:45;97020.78;;;24.94;60.60
57442;BME280;43284;47.042;15.498;2023-07-13T09:48:12;97030.47;;;25.03;58.37
57442;BME280;43284;47.042;15.498;2023-07-13T09:50:39;97026.28;;;25.01;55.18
57442;BME280;43284;47.042;15.498;2023-07-13T09:53:15;97035.16;;;25.01;54.52
57442;BME280;43284;47.042;15.498;2023-07-13T09:55:43;97035.50;;;25.06;55.72
57442;BME280;43284;47.042;15.498;2023-07-13T09:58:12;97034.66;;;25.06;49.50
57442;BME280;43284;47.042;15.498;2023-07-13T10:00:39;97036.47;;;25.14;52.52
57442;BME280;43284;47.042;15.498;2023-07-13T10:03:18;97035.16;;;25.26;54.23
57442;BME280;43284;47.042;15.498;2023-07-13T10:05:47;97028.13;;;25.33;52.90
57442;BME280;43284;47.042;15.498;2023-07-13T10:08:26;97032.28;;;25.44;50.64
57442;BME280;43284;47.042;15.498;2023-07-13T10:11:41;97035.41;;;25.56;50.39
57442;BME280;43284;47.042;15.498;2023-07-13T10:16:26;97028.97;;;25.81;49.25
57442;BME280;43284;47.042;15.498;2023-07-13T10:18:59;97031.97;;;25.95;52.84
57442;BME280;43284;47.042;15.498;2023-07-13T10:21:30;97033.28;;;25.99;50.83
57442;BME280;43284;47.042;15.498;2023-07-13T10:24:14;97016.03;;;26.01;49.43
57442;BME280;43284;47.042;15.498;2023-07-13T10:26:43;97009.81;;;26.09;49.66
57442;BME280;43284;47.042;15.498;2023-07-13T10:29:14;97011.41;;;26.18;51.71
57442;BME280;43284;47.042;15.498;2023-07-13T10:31:41;97016.91;;;26.25;52.62
57442;BME280;43284;47.042;15.498;2023-07-13T10:34:11;97020.25;;;26.27;56.76
57442;BME280;43284;47.042;15.498;2023-07-13T10:36:47;97013.72;;;26.21;50.19
57442;BME280;43284;47.042;15.498;2023-07-13T10:39:26;97017.56;;;26.27;53.22
57442;BME280;43284;47.042;15.498;2023-07-13T10:41:55;97027.38;;;26.35;52.16
57442;BME280;43284;47.042;15.498;2023-07-13T10:44:28;97015.28;;;26.39;49.69
57442;BME280;43284;47.042;15.498;2023-07-13T10:46:58;97010.25;;;26.44;49.71
57442;BME280;43284;47.042;15.498;2023-07-13T10:49:28;97009.19;;;26.53;50.45
57442;BME280;43284;47.042;15.498;2023-07-13T10:51:54;97015.19;;;26.55;50.45
57442;BME280;43284;47.042;15.498;2023-07-13T10:54:31;97007.84;;;26.57;47.85
57442;BME280;43284;47.042;15.498;2023-07-13T10:59:41;97020.06;;;26.51;45.49
57442;BME280;43284;47.042;15.498;2023-07-13T11:04:48;97025.44;;;26.51;50.90
57442;BME280;43284;47.042;15.498;2023-07-13T11:09:56;96994.00;;;26.68;50.49
57442;BME280;43284;47.042;15.498;2023-07-13T11:17:38;96988.69;;;26.98;47.37
57442;BME280;43284;47.042;15.498;2023-07-13T11:22:44;96993.53;;;27.03;47.27
57442;BME280;43284;47.042;15.498;2023-07-13T11:25:30;96998.44;;;26.99;42.78
57442;BME280;43284;47.042;15.498;2023-07-13T11:28:11;96996.56;;;27.00;47.82
57442;BME280;43284;47.042;15.498;2023-07-13T11:33:28;96982.81;;;27.03;50.41
57442;BME280;43284;47.042;15.498;2023-07-13T11:38:38;96987.63;;;27.07;51.23
57442;BME280;43284;47.042;15.498;2023-07-13T11:41:58;96986.78;;;27.07;53.85
57442;BME280;43284;47.042;15.498;2023-07-13T11:44:22;96981.22;;;27.08;55.87
57442;BME280;43284;47.042;15.498;2023-07-13T11:46:59;96979.75;;;27.06;55.15
57442;BME280;43284;47.042;15.498;2023-07-13T11:49:30;96993.28;;;27.12;55.86
57442;BME280;43284;47.042;15.498;2023-07-13T11:51:57;96999.66;;;27.11;55.00
57442;BME280;43284;47.042;15.498;2023-07-13T11:54:34;97007.72;;;27.11;55.05
57442;BME280;43284;47.042;15.498;2023-07-13T11:57:30;97003.19;;;27.12;56.92
57442;BME280;43284;47.042;15.498;2023-07-13T11:59:59;97000.38;;;27.05;56.73
57442;BME280;43284;47.042;15.498;2023-07-13T12:02:34;96990.41;;;27.14;56.76
57442;BME280;43284;47.042;15.498;2023-07-13T12:05:02;96982.53;;;27.12;55.94
57442;BME280;43284;47.042;15.498;2023-07-13T12:07:31;96970.41;;;27.17;57.06
57442;BME280;43284;47.042;15.498;2023-07-13T12:10:03;96973.50;;;27.28;57.72
57442;BME280;43284;47.042;15.498;2023-07-13T12:12:36;96966.41;;;27.36;57.67
57442;BME280;43284;47.042;15.498;2023-07-13T12:15:07;96965.47;;;27.43;56.21
57442;BME280;43284;47.042;15.498;2023-07-13T12:17:34;96959.44;;;27.41;55.46
57442;BME280;43284;47.042;15.498;2023-07-13T12:20:01;96961.22;;;27.49;57.19
57442;BME280;43284;47.042;15.498;2023-07-13T12:22:34;96967.97;;;27.45;57.52
57442;BME280;43284;47.042;15.498;2023-07-13T12:24:59;96973.34;;;27.45;56.88
57442;BME280;43284;47.042;15.498;2023-07-13T12:27:27;96975.34;;;27.28;56.64
57442;BME280;43284;47.042;15.498;2023-07-13T12:30:15;96979.69;;;27.14;57.33
57442;BME280;43284;47.042;15.498;2023-07-13T12:33:00;96990.94;;;26.71;58.57
57442;BME280;43284;47.042;15.498;2023-07-13T12:35:29;96983.88;;;26.56;59.88
57442;BME280;43284;47.042;15.498;2023-07-13T12:37:57;96982.34;;;26.30;60.25
57442;BME280;43284;47.042;15.498;2023-07-13T12:40:33;96976.34;;;26.05;62.18
57442;BME280;43284;47.042;15.498;2023-07-13T12:43:00;96961.63;;;26.01;62.38
57442;BME280;43284;47.042;15.498;2023-07-13T12:45:30;96961.84;;;25.83;62.33
57442;BME280;43284;47.042;15.498;2023-07-13T12:47:58;96985.03;;;25.67;66.51
57442;BME280;43284;47.042;15.498;2023-07-13T12:50:30;96994.44;;;25.47;70.67
57442;BME280;43284;47.042;15.498;2023-07-13T12:53:05;97008.06;;;25.29;72.16
57442;BME280;43284;47.042;15.498;2023-07-13T12:55:44;97018.28;;;24.84;71.40
57442;BME280;43284;47.042;15.498;2023-07-13T12:58:24;97028.16;;;24.76;71.74
57442;BME280;43284;47.042;15.498;2023-07-13T13:00:51;97029.13;;;24.50;71.33
57442;BME280;43284;47.042;15.498;2023-07-13T13:05:47;97039.56;;;24.19;73.06
57442;BME280;43284;47.042;15.498;2023-07-13T13:08:14;97037.88;;;24.10;70.66
57442;BME280;43284;47.042;15.498;2023-07-13T13:10:39;97036.97;;;23.93;70.97
57442;BME280;43284;47.042;15.498;2023-07-13T13:13:05;97034.44;;;23.83;70.40
57442;BME280;43284;47.042;15.498;2023-07-13T13:15:30;97043.53;;;23.72;70.71
57442;BME280;43284;47.042;15.498;2023-07-13T13:17:56;97063.34;;;23.61;71.04
57442;BME280;43284;47.042;15.498;2023-07-13T13:20:24;97073.78;;;23.47;72.67
57442;BME280;43284;47.042;15.498;2023-07-13T13:22:51;97076.91;;;23.42;72.94
57442;BME280;43284;47.042;15.498;2023-07-13T13:25:16;97069.81;;;23.33;73.45
57442;BME280;43284;47.042;15.498;2023-07-13T13:27:43;97069.59;;;23.18;73.60
57442;BME280;43284;47.042;15.498;2023-07-13T13:30:17;97078.66;;;23.07;74.20